Harrisville, Indiana
Current Conditions -  °F | °C
As of 9:35 AM on Thursday 27 Nov 2014 (Local Time) from KVES Reporting Station
Overcast Overcast  
Wind Chill: -6°   Ceiling: 3100
Heat Index: -2°   Visibility: 7mi
Dew Point: -3°   Wind: 8mph
Humidity: 93%   Direction: 300°WNW
Pressure: 30.21"   Gusts: NA
Location:  40.2091°N, 84.8536°W
Report Text: KVES 271435Z AUTO 30007KT 7SM OVC031 M02/M03 A3021 RMK AO2
Loading
Personal Weather Stations






























Interactive Weather Map New forecast layout! Learn more

10-Day Weather Forecast

Advertisements
Track Severe Weather on mobile